Time;durP1;ratioP1;P1;durP2;ratioP2;P2;SDS_P1;SDS_P2;PMS_P1;PMS_P2;Temp;Humidity;BMP_temperature;BMP_pressure;BME280_temperature;BME280_humidity;BME280_pressure;Samples;Min_cycle;Max_cycle;Signal;HPM_P1;HPM_P2
2023/06/10 00:00:56;;;;;;;13.45;4.85;;;;;;;;;;4994437;28;20057;-63
2023/06/10 00:03:26;;;;;;;18.30;4.65;;;;;;;;;;5010897;28;20042;-63
2023/06/10 00:05:57;;;;;;;17.85;4.60;;;;;;;;;;5004816;28;20176;-62
2023/06/10 00:08:28;;;;;;;13.75;4.80;;;;;;;;;;5013725;28;21143;-62
2023/06/10 00:11:00;;;;;;;21.23;5.00;;;;;;;;;;5014446;28;20057;-62
2023/06/10 00:13:30;;;;;;;12.77;5.38;;;;;;;;;;5030479;28;20057;-64
2023/06/10 00:16:00;;;;;;;13.18;4.93;;;;;;;;;;5030519;28;20049;-63
2023/06/10 00:18:31;;;;;;;14.27;4.75;;;;;;;;;;5030288;28;20042;-62
2023/06/10 00:21:04;;;;;;;15.32;5.13;;;;;;;;;;5030451;28;20062;-62
2023/06/10 00:23:37;;;;;;;13.70;5.25;;;;;;;;;;5030007;28;20049;-62
2023/06/10 00:26:08;;;;;;;17.45;6.25;;;;;;;;;;5055349;28;20049;-63
2023/06/10 00:28:38;;;;;;;15.73;5.35;;;;;;;;;;5072393;28;20048;-63
2023/06/10 00:31:08;;;;;;;16.88;6.45;;;;;;;;;;5072186;28;20040;-62
2023/06/10 00:33:41;;;;;;;15.25;5.90;;;;;;;;;;5072243;28;20048;-63
2023/06/10 00:36:11;;;;;;;19.45;5.55;;;;;;;;;;5038005;28;20061;-62
2023/06/10 00:38:44;;;;;;;13.57;5.28;;;;;;;;;;5072030;28;20060;-63
2023/06/10 00:41:15;;;;;;;14.05;4.80;;;;;;;;;;5092048;28;20040;-62
2023/06/10 00:43:45;;;;;;;11.05;4.43;;;;;;;;;;5092219;28;20040;-62
2023/06/10 00:46:18;;;;;;;12.30;4.90;;;;;;;;;;5092861;28;20048;-62
2023/06/10 00:48:49;;;;;;;12.10;4.80;;;;;;;;;;5055926;28;20499;-62
2023/06/10 00:51:20;;;;;;;15.45;4.40;;;;;;;;;;5092151;28;20395;-62
2023/06/10 00:53:52;;;;;;;14.65;5.10;;;;;;;;;;5092434;28;20506;-63
2023/06/10 00:56:23;;;;;;;12.73;4.85;;;;;;;;;;5092053;28;20044;-63
2023/06/10 00:58:53;;;;;;;14.48;5.00;;;;;;;;;;5032466;28;20068;-62
2023/06/10 01:01:23;;;;;;;10.43;4.30;;;;;;;;;;5032599;28;20052;-62
2023/06/10 01:03:54;;;;;;;13.30;5.60;;;;;;;;;;5029055;28;20502;-63
2023/06/10 01:06:55;;;;;;;12.40;4.90;;;;;;;;;;5009601;28;20042;-62
2023/06/10 01:09:38;;;;;;;13.07;5.45;;;;;;;;;;4957670;28;20046;-62
2023/06/10 01:12:19;;;;;;;14.73;5.30;;;;;;;;;;4989786;28;20050;-62
2023/06/10 01:14:56;;;;;;;12.95;5.80;;;;;;;;;;4970180;28;20058;-63
2023/06/10 01:17:26;;;;;;;17.90;5.95;;;;;;;;;;4876390;28;20054;-63
2023/06/10 01:19:58;;;;;;;13.77;5.35;;;;;;;;;;4938431;28;20062;-63
2023/06/10 01:22:32;;;;;;;15.27;5.68;;;;;;;;;;4970371;28;20050;-63
2023/06/10 01:25:03;;;;;;;14.95;5.68;;;;;;;;;;4922543;28;20058;-62
2023/06/10 01:27:39;;;;;;;13.00;5.60;;;;;;;;;;4950538;28;20538;-63
2023/06/10 01:30:23;;;;;;;13.73;5.53;;;;;;;;;;4950635;28;20060;-64
2023/06/10 01:32:54;;;;;;;13.57;6.35;;;;;;;;;;4889096;28;20059;-63
2023/06/10 01:35:28;;;;;;;17.88;6.22;;;;;;;;;;4935058;28;20051;-63
2023/06/10 01:38:00;;;;;;;14.90;6.55;;;;;;;;;;4950380;28;20051;-63
2023/06/10 01:40:32;;;;;;;23.63;7.50;;;;;;;;;;4932340;28;20051;-62
2023/06/10 01:43:02;;;;;;;14.35;5.90;;;;;;;;;;4950178;28;20058;-64
2023/06/10 01:45:33;;;;;;;19.63;6.13;;;;;;;;;;4929768;29;20064;-63
2023/06/10 01:48:07;;;;;;;17.70;6.10;;;;;;;;;;4931256;29;20068;-63
2023/06/10 01:50:37;;;;;;;15.32;5.93;;;;;;;;;;4931450;29;20051;-63
2023/06/10 01:53:07;;;;;;;16.40;6.10;;;;;;;;;;4946688;28;20074;-62
2023/06/10 01:55:37;;;;;;;17.92;6.22;;;;;;;;;;4931272;29;20056;-63
2023/06/10 01:58:09;;;;;;;17.73;5.57;;;;;;;;;;4931230;29;20527;-62
2023/06/10 02:00:39;;;;;;;13.70;6.05;;;;;;;;;;4899259;29;20067;-62
2023/06/10 02:03:09;;;;;;;13.95;5.50;;;;;;;;;;4931065;29;20055;-63
2023/06/10 02:05:41;;;;;;;15.38;5.45;;;;;;;;;;4944367;29;20067;-62
2023/06/10 02:08:11;;;;;;;13.50;5.88;;;;;;;;;;4930876;28;21678;-61
2023/06/10 02:10:42;;;;;;;15.68;5.88;;;;;;;;;;4953573;28;20055;-63
2023/06/10 02:13:12;;;;;;;14.20;5.63;;;;;;;;;;4946347;28;20141;-62
2023/06/10 02:15:44;;;;;;;11.65;4.97;;;;;;;;;;4940164;29;20062;-61
2023/06/10 02:18:14;;;;;;;15.05;5.53;;;;;;;;;;4950815;28;20070;-62
2023/06/10 02:20:45;;;;;;;11.23;5.30;;;;;;;;;;4989710;28;20050;-62
2023/06/10 02:23:15;;;;;;;16.73;5.50;;;;;;;;;;4960040;28;20065;-62
2023/06/10 02:25:47;;;;;;;12.63;4.85;;;;;;;;;;4949733;29;20054;-65
2023/06/10 02:28:18;;;;;;;10.23;4.45;;;;;;;;;;4969033;28;20050;-63
2023/06/10 02:30:49;;;;;;;12.80;5.55;;;;;;;;;;4969441;28;20442;-62
2023/06/10 02:33:21;;;;;;;9.85;4.28;;;;;;;;;;4930574;29;20059;-64
2023/06/10 02:35:51;;;;;;;11.10;4.15;;;;;;;;;;4931024;29;20060;-62
2023/06/10 02:38:23;;;;;;;12.07;4.55;;;;;;;;;;4930607;29;20639;-63
2023/06/10 02:40:53;;;;;;;11.50;4.10;;;;;;;;;;4914675;29;20059;-63
2023/06/10 02:43:25;;;;;;;12.60;4.30;;;;;;;;;;4930497;29;20578;-62
2023/06/10 02:45:55;;;;;;;10.00;4.15;;;;;;;;;;4911845;29;20052;-62
2023/06/10 02:48:27;;;;;;;12.07;4.13;;;;;;;;;;4892717;29;20548;-62
2023/06/10 02:50:58;;;;;;;8.77;4.00;;;;;;;;;;4862573;29;20056;-62
2023/06/10 02:53:37;;;;;;;9.65;3.88;;;;;;;;;;4878084;29;20455;-62
2023/06/10 02:56:12;;;;;;;10.73;4.40;;;;;;;;;;4855480;29;20502;-63
2023/06/10 02:58:42;;;;;;;9.23;3.88;;;;;;;;;;4855717;29;20075;-62
2023/06/10 03:01:15;;;;;;;8.00;3.50;;;;;;;;;;4874056;29;20057;-63
2023/06/10 03:03:56;;;;;;;8.85;3.75;;;;;;;;;;4867844;29;20612;-62
2023/06/10 03:06:26;;;;;;;9.63;4.00;;;;;;;;;;4818619;29;20054;-62
2023/06/10 03:09:07;;;;;;;9.82;3.70;;;;;;;;;;4855271;29;20054;-62
2023/06/10 03:11:38;;;;;;;9.05;3.65;;;;;;;;;;4838775;29;20585;-63
2023/06/10 03:14:09;;;;;;;11.13;3.22;;;;;;;;;;4840205;29;20053;-63
2023/06/10 03:16:42;;;;;;;9.63;3.47;;;;;;;;;;4835151;29;20066;-63
2023/06/10 03:19:14;;;;;;;11.88;3.92;;;;;;;;;;4858919;29;20050;-62
2023/06/10 03:21:54;;;;;;;8.98;3.20;;;;;;;;;;4839388;29;20057;-63
2023/06/10 03:24:26;;;;;;;11.05;3.83;;;;;;;;;;4861234;29;20054;-63
2023/06/10 03:26:56;;;;;;;11.27;3.80;;;;;;;;;;4876662;29;20061;-63
2023/06/10 03:29:26;;;;;;;10.73;3.80;;;;;;;;;;4876880;29;20077;-63
2023/06/10 03:31:56;;;;;;;7.85;3.40;;;;;;;;;;4877392;29;20064;-63
2023/06/10 03:34:27;;;;;;;8.90;3.47;;;;;;;;;;4900554;29;20048;-63
2023/06/10 03:36:58;;;;;;;16.38;3.83;;;;;;;;;;4846154;29;20060;-63
2023/06/10 03:39:29;;;;;;;14.00;3.78;;;;;;;;;;4852722;29;20502;-63
2023/06/10 03:42:00;;;;;;;8.30;3.60;;;;;;;;;;4858095;29;20392;-63
2023/06/10 03:44:33;;;;;;;8.27;3.90;;;;;;;;;;4852006;29;20053;-62
2023/06/10 03:47:04;;;;;;;13.00;3.53;;;;;;;;;;4821745;29;20063;-63
2023/06/10 03:49:36;;;;;;;8.10;3.40;;;;;;;;;;4774470;30;20059;-62
2023/06/10 03:52:07;;;;;;;6.65;3.00;;;;;;;;;;4785196;30;20055;-63
2023/06/10 03:54:38;;;;;;;8.60;3.45;;;;;;;;;;4804403;29;20062;-63
2023/06/10 03:57:09;;;;;;;14.48;3.30;;;;;;;;;;4814435;29;20117;-62
2023/06/10 03:59:40;;;;;;;6.85;2.78;;;;;;;;;;4794421;29;20058;-63
2023/06/10 04:02:10;;;;;;;8.65;3.17;;;;;;;;;;4851250;29;20551;-63
2023/06/10 04:04:42;;;;;;;7.30;3.40;;;;;;;;;;4857812;29;21070;-62
2023/06/10 04:07:13;;;;;;;7.25;3.53;;;;;;;;;;4876711;29;20052;-62
2023/06/10 04:09:44;;;;;;;12.32;3.70;;;;;;;;;;4876247;29;20538;-62
2023/06/10 04:12:14;;;;;;;9.52;3.47;;;;;;;;;;4856440;29;20126;-64
2023/06/10 04:14:45;;;;;;;6.65;3.05;;;;;;;;;;4829623;29;20070;-63
2023/06/10 04:17:16;;;;;;;8.80;3.28;;;;;;;;;;4853943;29;20504;-62
2023/06/10 04:19:46;;;;;;;9.43;3.28;;;;;;;;;;4844321;29;20062;-63
2023/06/10 04:22:17;;;;;;;7.75;3.22;;;;;;;;;;4857507;29;20045;-63
2023/06/10 04:24:48;;;;;;;9.25;3.00;;;;;;;;;;4894174;29;20045;-63
2023/06/10 04:27:19;;;;;;;9.55;3.03;;;;;;;;;;4845602;29;20803;-63
2023/06/10 04:29:49;;;;;;;8.55;3.20;;;;;;;;;;4894446;29;20505;-63
2023/06/10 04:32:20;;;;;;;7.35;3.05;;;;;;;;;;4857881;29;20049;-62
2023/06/10 04:34:51;;;;;;;5.93;3.35;;;;;;;;;;4869102;29;20061;-63
2023/06/10 04:37:21;;;;;;;6.40;2.80;;;;;;;;;;4857817;29;20052;-63
2023/06/10 04:39:52;;;;;;;6.78;2.83;;;;;;;;;;4876166;29;20057;-62
2023/06/10 04:42:22;;;;;;;8.93;3.42;;;;;;;;;;4863669;29;20057;-63
2023/06/10 04:44:52;;;;;;;7.43;3.28;;;;;;;;;;4857227;29;20065;-63
2023/06/10 04:47:23;;;;;;;7.75;3.72;;;;;;;;;;4876129;29;20056;-64
2023/06/10 04:49:53;;;;;;;8.43;3.25;;;;;;;;;;4876072;29;20080;-62
2023/06/10 04:52:24;;;;;;;8.07;3.03;;;;;;;;;;4875580;29;20051;-64
2023/06/10 04:54:55;;;;;;;7.95;3.15;;;;;;;;;;4856960;29;20057;-65
2023/06/10 04:57:25;;;;;;;5.93;2.63;;;;;;;;;;4848562;29;20072;-63
2023/06/10 04:59:56;;;;;;;9.70;2.80;;;;;;;;;;4847746;29;20100;-63
2023/06/10 05:02:26;;;;;;;6.82;2.97;;;;;;;;;;4848270;29;20061;-62
2023/06/10 05:04:57;;;;;;;8.55;2.95;;;;;;;;;;4847473;29;20062;-63
2023/06/10 05:07:28;;;;;;;6.97;2.88;;;;;;;;;;4884854;29;20494;-62
2023/06/10 05:09:58;;;;;;;7.70;3.35;;;;;;;;;;4896921;29;20051;-62
2023/06/10 05:12:28;;;;;;;13.73;3.47;;;;;;;;;;4894596;29;20052;-63
2023/06/10 05:14:58;;;;;;;8.95;3.70;;;;;;;;;;4932096;29;20086;-63
2023/06/10 05:17:28;;;;;;;11.27;3.40;;;;;;;;;;4894362;29;20065;-63
2023/06/10 05:19:59;;;;;;;8.32;3.70;;;;;;;;;;4921599;29;20106;-63
2023/06/10 05:22:30;;;;;;;8.60;3.30;;;;;;;;;;4951346;29;20055;-62
2023/06/10 05:25:00;;;;;;;11.35;3.90;;;;;;;;;;4934902;29;20047;-62
2023/06/10 05:27:30;;;;;;;7.25;3.53;;;;;;;;;;4951361;29;20055;-63
2023/06/10 05:30:00;;;;;;;9.48;3.65;;;;;;;;;;4960359;28;20130;-63
2023/06/10 05:32:31;;;;;;;7.95;3.42;;;;;;;;;;4981407;28;20508;-63
2023/06/10 05:35:03;;;;;;;9.35;3.75;;;;;;;;;;4996116;28;20061;-62
2023/06/10 05:37:36;;;;;;;8.93;3.00;;;;;;;;;;4964376;28;20060;-64
2023/06/10 05:40:07;;;;;;;10.18;3.30;;;;;;;;;;5012987;28;20068;-63
2023/06/10 05:42:37;;;;;;;8.88;3.08;;;;;;;;;;5012459;28;20413;-62
2023/06/10 05:45:08;;;;;;;7.45;2.88;;;;;;;;;;5028791;28;20049;-63
2023/06/10 05:47:40;;;;;;;9.15;3.83;;;;;;;;;;5028919;28;20053;-63
2023/06/10 05:50:10;;;;;;;7.57;3.13;;;;;;;;;;5028867;28;20090;-63
2023/06/10 05:52:40;;;;;;;10.38;3.58;;;;;;;;;;5028722;28;20161;-63
2023/06/10 05:55:11;;;;;;;10.35;4.40;;;;;;;;;;5062296;28;20051;-63
2023/06/10 05:57:42;;;;;;;9.95;3.92;;;;;;;;;;5007443;28;20059;-63
2023/06/10 06:00:13;;;;;;;9.40;3.38;;;;;;;;;;5072323;28;20411;-62
2023/06/10 06:02:43;;;;;;;7.90;3.20;;;;;;;;;;5091457;28;20044;-63
2023/06/10 06:05:13;;;;;;;6.65;3.13;;;;;;;;;;5040539;28;20526;-63
2023/06/10 06:07:43;;;;;;;10.07;3.30;;;;;;;;;;5073746;28;20043;-63
2023/06/10 06:10:14;;;;;;;9.65;3.13;;;;;;;;;;5040395;28;20063;-64
2023/06/10 06:12:45;;;;;;;7.20;3.30;;;;;;;;;;5091162;28;20051;-63
2023/06/10 06:15:15;;;;;;;9.40;3.50;;;;;;;;;;5091211;28;20044;-62
2023/06/10 06:17:46;;;;;;;9.23;3.28;;;;;;;;;;5091059;28;20044;-62
2023/06/10 06:20:16;;;;;;;9.15;3.22;;;;;;;;;;5055388;28;20487;-62
2023/06/10 06:22:48;;;;;;;10.00;3.83;;;;;;;;;;5024417;28;20059;-63
2023/06/10 06:25:18;;;;;;;8.55;3.50;;;;;;;;;;5091001;28;20048;-62
2023/06/10 06:27:48;;;;;;;10.05;3.25;;;;;;;;;;5090802;28;20040;-63
2023/06/10 06:30:20;;;;;;;10.00;3.15;;;;;;;;;;5054922;28;20052;-63
2023/06/10 06:32:51;;;;;;;10.13;4.03;;;;;;;;;;5055619;28;20620;-63
2023/06/10 06:35:22;;;;;;;;;;;;;;;;;;5056821;28;20052;-63
2023/06/10 06:37:52;;;;;;;8.70;3.17;;;;;;;;;;5088693;28;19920;-63
2023/06/10 06:40:26;;;;;;;8.15;3.53;;;;;;;;;;5088223;28;20500;-63
2023/06/10 06:42:57;;;;;;;8.20;3.00;;;;;;;;;;5071455;28;20060;-62
2023/06/10 06:45:59;;;;;;;9.15;3.30;;;;;;;;;;4966550;28;20078;-63
2023/06/10 06:48:30;;;;;;;9.57;3.05;;;;;;;;;;4976909;28;20047;-63
2023/06/10 06:51:01;;;;;;;8.30;3.20;;;;;;;;;;4992611;28;20065;-63
2023/06/10 06:53:31;;;;;;;9.00;3.00;;;;;;;;;;4976272;28;20058;-62
2023/06/10 06:56:03;;;;;;;10.82;2.75;;;;;;;;;;4992335;28;20049;-62
2023/06/10 06:58:33;;;;;;;11.40;2.92;;;;;;;;;;4960400;28;20061;-64
2023/06/10 07:01:04;;;;;;;6.65;2.63;;;;;;;;;;4992701;28;20510;-62
2023/06/10 07:03:35;;;;;;;7.63;2.92;;;;;;;;;;4992358;28;20054;-63
2023/06/10 07:06:05;;;;;;;6.80;2.70;;;;;;;;;;4992398;28;20081;-63
2023/06/10 07:08:36;;;;;;;6.90;2.90;;;;;;;;;;4995796;28;20050;-62
2023/06/10 07:11:08;;;;;;;8.98;2.95;;;;;;;;;;5011874;28;20062;-62
2023/06/10 07:13:38;;;;;;;8.50;2.60;;;;;;;;;;5011902;28;20068;-63
2023/06/10 07:16:08;;;;;;;8.10;3.17;;;;;;;;;;5011858;28;20078;-62
2023/06/10 07:18:38;;;;;;;11.57;3.88;;;;;;;;;;4997627;28;20062;-62
2023/06/10 07:21:08;;;;;;;10.75;3.45;;;;;;;;;;5001458;28;20053;-62
2023/06/10 07:23:43;;;;;;;8.73;3.13;;;;;;;;;;5031578;28;20540;-63
2023/06/10 07:26:14;;;;;;;5.85;2.20;;;;;;;;;;4982286;28;20386;-63
2023/06/10 07:28:44;;;;;;;6.25;2.75;;;;;;;;;;5031434;28;20402;-62
2023/06/10 07:31:14;;;;;;;8.73;3.20;;;;;;;;;;5031161;28;20053;-63
2023/06/10 07:33:45;;;;;;;7.03;2.47;;;;;;;;;;5041653;28;20056;-62
2023/06/10 07:36:15;;;;;;;5.65;2.38;;;;;;;;;;5050836;28;20076;-62
2023/06/10 07:38:45;;;;;;;6.53;2.85;;;;;;;;;;5034807;28;20056;-63
2023/06/10 07:41:17;;;;;;;7.18;2.97;;;;;;;;;;5050892;28;20061;-63
2023/06/10 07:43:47;;;;;;;;;;;;;;;;;;5020138;28;20060;-62
2023/06/10 07:46:17;;;;;;;5.30;2.22;;;;;;;;;;5038076;28;19920;-63
2023/06/10 07:48:48;;;;;;;7.75;2.63;;;;;;;;;;5093656;28;20500;-63
2023/06/10 07:51:18;;;;;;;6.35;2.60;;;;;;;;;;5093525;28;20373;-63
2023/06/10 07:53:49;;;;;;;6.53;2.65;;;;;;;;;;5074463;28;20411;-62
2023/06/10 07:56:21;;;;;;;5.68;2.42;;;;;;;;;;5093433;28;20491;-63
2023/06/10 07:58:51;;;;;;;8.10;2.22;;;;;;;;;;5073967;28;20055;-63
2023/06/10 08:01:22;;;;;;;5.63;2.20;;;;;;;;;;5093537;28;20048;-63
2023/06/10 08:03:53;;;;;;;7.65;2.47;;;;;;;;;;5093297;28;21003;-63
2023/06/10 08:06:23;;;;;;;12.60;4.13;;;;;;;;;;5093304;28;20412;-63
2023/06/10 08:08:53;;;;;;;6.93;2.92;;;;;;;;;;5042845;28;20048;-63
2023/06/10 08:11:27;;;;;;;9.27;3.38;;;;;;;;;;5040665;28;20401;-63
2023/06/10 08:13:58;;;;;;;7.70;2.83;;;;;;;;;;4994508;28;20048;-63
2023/06/10 08:16:29;;;;;;;6.72;2.33;;;;;;;;;;5074033;28;20522;-63
2023/06/10 08:18:59;;;;;;;7.85;2.40;;;;;;;;;;5074637;28;20067;-62
2023/06/10 08:21:30;;;;;;;5.68;2.13;;;;;;;;;;5042210;28;20061;-63
2023/06/10 08:24:00;;;;;;;6.13;2.42;;;;;;;;;;5051985;28;20052;-63
2023/06/10 08:26:30;;;;;;;6.32;2.20;;;;;;;;;;5040721;28;20109;-62
2023/06/10 08:29:00;;;;;;;6.32;2.58;;;;;;;;;;5092606;28;20044;-63
2023/06/10 08:31:30;;;;;;;5.50;2.40;;;;;;;;;;5040463;28;20427;-62
2023/06/10 08:34:00;;;;;;;7.88;2.75;;;;;;;;;;5092707;28;20051;-63
2023/06/10 08:36:30;;;;;;;9.38;3.08;;;;;;;;;;5073626;28;20514;-62
2023/06/10 08:39:00;;;;;;;6.90;2.58;;;;;;;;;;5073179;28;20052;-62
2023/06/10 08:41:36;;;;;;;6.82;2.65;;;;;;;;;;5090618;28;20518;-63
2023/06/10 08:44:30;;;;;;;8.75;3.08;;;;;;;;;;5073412;28;20070;-63
2023/06/10 08:47:08;;;;;;;9.95;3.65;;;;;;;;;;5056789;28;20439;-63
2023/06/10 08:49:41;;;;;;;9.30;3.40;;;;;;;;;;5092721;28;20048;-63
2023/06/10 08:52:20;;;;;;;13.57;3.60;;;;;;;;;;5092317;28;20052;-63
2023/06/10 08:54:59;;;;;;;8.00;3.42;;;;;;;;;;5056619;28;20122;-65
2023/06/10 08:57:31;;;;;;;12.18;4.47;;;;;;;;;;5092040;28;20048;-62
2023/06/10 09:00:02;;;;;;;15.15;6.05;;;;;;;;;;5073498;28;20048;-62
2023/06/10 09:02:36;;;;;;;15.75;5.97;;;;;;;;;;5072843;28;20055;-62
2023/06/10 09:05:08;;;;;;;17.25;5.60;;;;;;;;;;5092260;28;20043;-62
2023/06/10 09:07:39;;;;;;;10.52;4.82;;;;;;;;;;5056855;28;20056;-63
2023/06/10 09:10:10;;;;;;;11.95;4.85;;;;;;;;;;5056867;28;20060;-62
2023/06/10 09:12:41;;;;;;;15.98;4.93;;;;;;;;;;5092038;28;20052;-62
2023/06/10 09:15:12;;;;;;;12.65;4.70;;;;;;;;;;5056678;28;20064;-62
2023/06/10 09:17:42;;;;;;;13.75;4.60;;;;;;;;;;5091865;28;20047;-63
2023/06/10 09:20:13;;;;;;;12.40;3.80;;;;;;;;;;5073212;28;20052;-62
2023/06/10 09:22:44;;;;;;;13.15;4.32;;;;;;;;;;5072498;28;20048;-62
2023/06/10 09:25:15;;;;;;;8.10;3.75;;;;;;;;;;5023858;28;20602;-64
2023/06/10 09:27:56;;;;;;;9.27;4.03;;;;;;;;;;5068775;28;20055;-62
2023/06/10 09:30:30;;;;;;;7.43;3.08;;;;;;;;;;5019628;28;20057;-62
2023/06/10 09:33:09;;;;;;;5.82;2.35;;;;;;;;;;5069091;28;20061;-62
2023/06/10 09:35:46;;;;;;;11.73;4.25;;;;;;;;;;5068900;28;20052;-62
2023/06/10 09:38:21;;;;;;;13.98;5.75;;;;;;;;;;5035555;28;20052;-63
2023/06/10 09:40:53;;;;;;;15.75;5.70;;;;;;;;;;5051760;28;20523;-62
2023/06/10 09:43:38;;;;;;;15.45;6.38;;;;;;;;;;5048541;28;20049;-63
2023/06/10 09:46:18;;;;;;;13.27;4.95;;;;;;;;;;4999222;28;20061;-64
2023/06/10 09:48:49;;;;;;;13.50;4.65;;;;;;;;;;5048709;28;20053;-63
2023/06/10 09:51:19;;;;;;;14.10;5.07;;;;;;;;;;4984262;28;20064;-63
2023/06/10 09:53:52;;;;;;;14.00;4.75;;;;;;;;;;5048616;28;20045;-63
2023/06/10 09:56:32;;;;;;;13.60;5.05;;;;;;;;;;5000609;28;20072;-63
2023/06/10 09:59:06;;;;;;;11.85;5.82;;;;;;;;;;5048574;28;20057;-63
2023/06/10 10:01:36;;;;;;;20.08;7.30;;;;;;;;;;5015351;28;20045;-62
2023/06/10 10:04:06;;;;;;;14.52;5.65;;;;;;;;;;5048512;28;20065;-64
2023/06/10 10:06:38;;;;;;;12.98;5.03;;;;;;;;;;5048231;28;20061;-63
2023/06/10 10:09:08;;;;;;;17.23;6.18;;;;;;;;;;5014925;28;20072;-63
2023/06/10 10:11:40;;;;;;;19.33;6.45;;;;;;;;;;5048307;28;20045;-63
2023/06/10 10:14:11;;;;;;;13.77;6.60;;;;;;;;;;5048499;28;20188;-62
2023/06/10 10:16:42;;;;;;;16.33;6.88;;;;;;;;;;5031227;28;20049;-63
2023/06/10 10:19:36;;;;;;;13.30;5.53;;;;;;;;;;5028097;28;20413;-63
2023/06/10 10:22:15;;;;;;;14.55;4.95;;;;;;;;;;5050643;28;20056;-63
2023/06/10 10:24:57;;;;;;;14.65;4.78;;;;;;;;;;5068907;28;20427;-64
2023/06/10 10:27:35;;;;;;;11.07;4.22;;;;;;;;;;5019029;28;20056;-63
2023/06/10 10:30:10;;;;;;;10.55;4.97;;;;;;;;;;5052148;28;20056;-63
2023/06/10 10:32:46;;;;;;;16.15;5.10;;;;;;;;;;4989237;28;20056;-63
2023/06/10 10:35:23;;;;;;;13.02;5.15;;;;;;;;;;5019353;28;20049;-63
2023/06/10 10:37:54;;;;;;;11.98;5.45;;;;;;;;;;5035165;28;20075;-62
2023/06/10 10:40:29;;;;;;;21.35;8.30;;;;;;;;;;5051976;28;20060;-61
2023/06/10 10:43:00;;;;;;;17.75;7.05;;;;;;;;;;5051842;28;20048;-65
2023/06/10 10:45:33;;;;;;;17.77;7.25;;;;;;;;;;5035088;28;20049;-63
2023/06/10 10:48:12;;;;;;;17.10;6.38;;;;;;;;;;5051610;28;20513;-63
2023/06/10 10:50:42;;;;;;;15.73;5.40;;;;;;;;;;5003252;28;20049;-63
2023/06/10 10:53:20;;;;;;;12.40;5.13;;;;;;;;;;5051736;28;20048;-64
2023/06/10 10:56:20;;;;;;;15.60;5.28;;;;;;;;;;5055403;28;20045;-62
2023/06/10 10:59:08;;;;;;;15.65;4.95;;;;;;;;;;5058593;28;20059;-62
2023/06/10 11:01:46;;;;;;;10.35;4.38;;;;;;;;;;5094466;28;20135;-63
2023/06/10 11:04:18;;;;;;;13.57;4.72;;;;;;;;;;5042102;28;20059;-62
2023/06/10 11:07:06;;;;;;;13.98;5.03;;;;;;;;;;5075082;28;20052;-63
2023/06/10 11:09:37;;;;;;;13.57;5.05;;;;;;;;;;5094337;28;20048;-62
2023/06/10 11:12:09;;;;;;;13.27;5.80;;;;;;;;;;5058327;28;20063;-64
2023/06/10 11:14:56;;;;;;;19.77;5.75;;;;;;;;;;5041988;28;20526;-64
2023/06/10 11:17:26;;;;;;;10.30;5.38;;;;;;;;;;5041449;28;20392;-63
2023/06/10 11:19:59;;;;;;;17.40;6.60;;;;;;;;;;5094204;28;20040;-63
2023/06/10 11:22:32;;;;;;;19.90;6.57;;;;;;;;;;5070930;28;20131;-63
2023/06/10 11:25:02;;;;;;;17.23;6.55;;;;;;;;;;5054300;28;20052;-62
2023/06/10 11:27:39;;;;;;;19.88;6.65;;;;;;;;;;5071069;28;20475;-63
2023/06/10 11:30:19;;;;;;;10.95;4.82;;;;;;;;;;5021296;28;20060;-63
2023/06/10 11:32:52;;;;;;;12.32;5.22;;;;;;;;;;5022938;28;20045;-63
2023/06/10 11:35:24;;;;;;;22.88;8.07;;;;;;;;;;5070914;28;20056;-63
2023/06/10 11:37:55;;;;;;;;;;;;;;;;;;5071481;28;20171;-63
2023/06/10 11:40:26;;;;;;;20.00;7.85;;;;;;;;;;5037129;28;19920;-63
2023/06/10 11:42:58;;;;;;;23.67;9.15;;;;;;;;;;5070893;28;20475;-63
2023/06/10 11:45:30;;;;;;;28.48;11.48;;;;;;;;;;4991645;28;20090;-63
2023/06/10 11:48:01;;;;;;;28.95;10.82;;;;;;;;;;5070966;28;20056;-63
2023/06/10 11:50:34;;;;;;;32.47;12.93;;;;;;;;;;5070419;28;20045;-64
2023/06/10 11:53:05;;;;;;;40.50;12.70;;;;;;;;;;5070690;28;20064;-63
2023/06/10 11:55:50;;;;;;;28.42;11.77;;;;;;;;;;5070617;28;20044;-63
2023/06/10 11:58:22;;;;;;;30.83;11.85;;;;;;;;;;5070554;28;20056;-63
2023/06/10 12:00:57;;;;;;;26.45;11.50;;;;;;;;;;5070231;28;20123;-62
2023/06/10 12:03:37;;;;;;;27.40;11.45;;;;;;;;;;5044439;28;20499;-62
2023/06/10 12:06:07;;;;;;;27.27;11.98;;;;;;;;;;5057905;28;20417;-63
2023/06/10 12:08:43;;;;;;;23.38;10.05;;;;;;;;;;5073558;28;20055;-63
2023/06/10 12:11:13;;;;;;;24.17;9.88;;;;;;;;;;5023967;28;20055;-63
2023/06/10 12:13:50;;;;;;;21.50;8.68;;;;;;;;;;5093214;28;20054;-63
2023/06/10 12:16:22;;;;;;;21.00;7.95;;;;;;;;;;5057430;28;20048;-63
2023/06/10 12:19:02;;;;;;;20.95;8.02;;;;;;;;;;5058072;28;20063;-63
2023/06/10 12:21:35;;;;;;;18.80;7.60;;;;;;;;;;5041784;28;20056;-63
2023/06/10 12:24:11;;;;;;;25.92;8.50;;;;;;;;;;5092684;28;20044;-63
2023/06/10 12:26:47;;;;;;;26.55;7.32;;;;;;;;;;5092784;28;20483;-63
2023/06/10 12:29:18;;;;;;;21.13;7.88;;;;;;;;;;5073585;28;20617;-63
2023/06/10 12:32:07;;;;;;;16.85;7.90;;;;;;;;;;5092581;28;20052;-63
2023/06/10 12:34:40;;;;;;;19.70;7.78;;;;;;;;;;5092865;28;20114;-64
2023/06/10 12:37:14;;;;;;;18.98;8.50;;;;;;;;;;5056682;28;20519;-63
2023/06/10 12:39:56;;;;;;;21.75;8.27;;;;;;;;;;5008727;28;20074;-63
2023/06/10 12:42:26;;;;;;;23.13;8.63;;;;;;;;;;5092322;28;20048;-63
2023/06/10 12:45:00;;;;;;;17.05;6.97;;;;;;;;;;4996984;28;20563;-63
2023/06/10 12:47:34;;;;;;;16.17;5.85;;;;;;;;;;5029806;28;20054;-64
2023/06/10 12:50:05;;;;;;;17.85;6.78;;;;;;;;;;5029894;28;20153;-64
2023/06/10 12:52:35;;;;;;;15.48;6.47;;;;;;;;;;5012903;28;20056;-63
2023/06/10 12:55:06;;;;;;;18.83;7.65;;;;;;;;;;5029387;28;20409;-63
2023/06/10 12:57:37;;;;;;;12.57;6.03;;;;;;;;;;5029010;28;20505;-63
2023/06/10 13:00:09;;;;;;;16.38;6.15;;;;;;;;;;4988323;28;20057;-65
2023/06/10 13:02:40;;;;;;;15.77;6.75;;;;;;;;;;4960444;28;20485;-63
2023/06/10 13:05:10;;;;;;;14.73;8.10;;;;;;;;;;5009280;28;20508;-63
2023/06/10 13:07:45;;;;;;;15.25;6.05;;;;;;;;;;4993732;28;20054;-64
2023/06/10 13:10:16;;;;;;;16.55;5.55;;;;;;;;;;4936687;28;20057;-63
2023/06/10 13:12:46;;;;;;;10.30;4.10;;;;;;;;;;5032718;28;20053;-64
2023/06/10 13:15:17;;;;;;;9.23;4.15;;;;;;;;;;5014888;28;20057;-63
2023/06/10 13:17:50;;;;;;;9.20;3.47;;;;;;;;;;5019714;28;20421;-63
2023/06/10 13:20:22;;;;;;;11.38;3.90;;;;;;;;;;4980363;28;20054;-63
2023/06/10 13:22:53;;;;;;;8.10;4.10;;;;;;;;;;5030224;28;20060;-64
2023/06/10 13:25:24;;;;;;;6.07;3.17;;;;;;;;;;5011365;28;20060;-63
2023/06/10 13:27:54;;;;;;;10.30;4.32;;;;;;;;;;4981082;28;21006;-64
2023/06/10 13:30:24;;;;;;;8.35;3.30;;;;;;;;;;5040816;28;20045;-63
2023/06/10 13:32:55;;;;;;;8.68;3.78;;;;;;;;;;5028496;28;20532;-63
2023/06/10 13:35:25;;;;;;;8.23;3.95;;;;;;;;;;5067608;28;20053;-63
2023/06/10 13:37:56;;;;;;;6.00;2.75;;;;;;;;;;5079465;28;20055;-64
2023/06/10 13:40:27;;;;;;;4.75;2.03;;;;;;;;;;5030031;28;20047;-63
2023/06/10 13:42:57;;;;;;;3.75;1.65;;;;;;;;;;5030702;28;20052;-63
2023/06/10 13:45:27;;;;;;;3.53;1.58;;;;;;;;;;5085906;28;20043;-63
2023/06/10 13:48:03;;;;;;;3.60;1.48;;;;;;;;;;5076505;28;20383;-63
2023/06/10 13:50:33;;;;;;;2.85;1.75;;;;;;;;;;5051252;28;20059;-63
2023/06/10 13:53:03;;;;;;;2.95;1.27;;;;;;;;;;5035940;28;20060;-63
2023/06/10 13:55:33;;;;;;;3.58;1.35;;;;;;;;;;5069821;28;20045;-64
2023/06/10 13:58:05;;;;;;;2.33;1.00;;;;;;;;;;5068414;28;20052;-63
2023/06/10 14:00:35;;;;;;;2.55;1.30;;;;;;;;;;5070466;28;20071;-63
2023/06/10 14:03:05;;;;;;;2.60;1.02;;;;;;;;;;5044672;28;20052;-63
2023/06/10 14:05:36;;;;;;;4.35;1.08;;;;;;;;;;5086169;28;20053;-63
2023/06/10 14:08:06;;;;;;;3.22;1.02;;;;;;;;;;5027531;28;20052;-64
2023/06/10 14:10:36;;;;;;;2.42;1.20;;;;;;;;;;5079752;28;20415;-63
2023/06/10 14:13:06;;;;;;;4.82;1.70;;;;;;;;;;5045784;28;20419;-63
2023/06/10 14:15:36;;;;;;;6.70;1.48;;;;;;;;;;5059887;28;20044;-64
2023/06/10 14:18:07;;;;;;;4.90;1.40;;;;;;;;;;5079557;28;20040;-64
2023/06/10 14:20:37;;;;;;;6.05;1.52;;;;;;;;;;5005377;28;20530;-64
2023/06/10 14:23:08;;;;;;;3.90;1.70;;;;;;;;;;5004872;28;20140;-63
2023/06/10 14:25:38;;;;;;;6.28;1.65;;;;;;;;;;4978071;28;20045;-63
2023/06/10 14:28:08;;;;;;;4.15;1.83;;;;;;;;;;4994492;28;20045;-64
2023/06/10 14:30:38;;;;;;;3.25;1.48;;;;;;;;;;5011222;28;20068;-63
2023/06/10 14:33:09;;;;;;;6.32;1.52;;;;;;;;;;5003411;28;20061;-63
2023/06/10 14:35:42;;;;;;;4.95;1.08;;;;;;;;;;5027934;28;20046;-64
2023/06/10 14:38:12;;;;;;;6.00;1.20;;;;;;;;;;5027721;28;20065;-64
2023/06/10 14:40:43;;;;;;;5.72;1.30;;;;;;;;;;5021818;28;20061;-64
2023/06/10 14:43:13;;;;;;;8.68;1.58;;;;;;;;;;4977510;28;20049;-64
2023/06/10 14:45:43;;;;;;;3.85;1.60;;;;;;;;;;5027191;28;20053;-64
2023/06/10 14:48:14;;;;;;;3.13;1.35;;;;;;;;;;5026994;28;20052;-65
2023/06/10 14:50:46;;;;;;;3.42;1.15;;;;;;;;;;5026737;28;20054;-63
2023/06/10 14:53:19;;;;;;;3.95;1.23;;;;;;;;;;4994446;28;20390;-64
2023/06/10 14:55:50;;;;;;;2.28;0.95;;;;;;;;;;5027051;28;20057;-63
2023/06/10 14:58:20;;;;;;;8.02;1.42;;;;;;;;;;5004577;28;20523;-63
2023/06/10 15:00:51;;;;;;;3.42;1.15;;;;;;;;;;5046828;28;20060;-63
2023/06/10 15:03:22;;;;;;;3.53;1.20;;;;;;;;;;5023480;28;20428;-63
2023/06/10 15:05:52;;;;;;;3.53;1.10;;;;;;;;;;5057952;28;20136;-63